Time;durP1;ratioP1;P1;durP2;ratioP2;P2;SDS_P1;SDS_P2;PMS_P1;PMS_P2;Temp;Humidity;BMP_temperature;BMP_pressure;BME280_temperature;BME280_humidity;BME280_pressure;Samples;Min_cycle;Max_cycle;Signal;HPM_P1;HPM_P2
2023/11/23 00:00:00;;;;;;;5.68;1.60;;;13.40;71.00;;;;;;5134178;27;20057;-74
2023/11/23 00:02:26;;;;;;;3.38;1.20;;;13.40;71.20;;;;;;5128966;27;20493;-74
2023/11/23 00:04:52;;;;;;;2.78;1.10;;;13.40;71.20;;;;;;5097565;28;20033;-74
2023/11/23 00:07:18;;;;;;;3.15;1.40;;;13.40;71.20;;;;;;5113363;28;20538;-75
2023/11/23 00:09:43;;;;;;;2.83;1.33;;;13.40;71.10;;;;;;5113480;28;20024;-75
2023/11/23 00:12:09;;;;;;;3.60;1.30;;;13.40;71.00;;;;;;5113238;28;20059;-73
2023/11/23 00:14:36;;;;;;;1.85;1.20;;;13.40;71.10;;;;;;5113379;28;20023;-76
2023/11/23 00:17:02;;;;;;;2.55;1.17;;;13.40;71.10;;;;;;5117088;27;20030;-74
2023/11/23 00:19:28;;;;;;;1.83;1.15;;;13.50;71.10;;;;;;5133788;27;20353;-73
2023/11/23 00:21:53;;;;;;;3.97;1.00;;;13.50;71.00;;;;;;5114835;27;20058;-73
2023/11/23 00:24:19;;;;;;;2.63;1.15;;;13.50;71.00;;;;;;5133956;27;20027;-73
2023/11/23 00:26:45;;;;;;;2.22;1.00;;;13.40;70.90;;;;;;5133726;27;20041;-74
2023/11/23 00:29:10;;;;;;;2.58;1.20;;;13.40;71.00;;;;;;5133482;27;20023;-74
2023/11/23 00:31:36;;;;;;;4.53;1.10;;;13.40;71.10;;;;;;5133399;27;20030;-73
2023/11/23 00:34:05;;;;;;;1.60;1.00;;;13.40;71.10;;;;;;5133358;27;20446;-73
2023/11/23 00:36:31;;;;;;;5.13;1.58;;;13.40;71.10;;;;;;5133469;27;20011;-73
2023/11/23 00:38:57;;;;;;;3.00;0.90;;;13.40;71.10;;;;;;5133174;27;20019;-74
2023/11/23 00:41:22;;;;;;;2.40;0.80;;;13.40;70.90;;;;;;5132960;27;20369;-75
2023/11/23 00:43:50;;;;;;;0.93;0.70;;;13.50;71.00;;;;;;5133381;27;20027;-74
2023/11/23 00:46:16;;;;;;;4.82;1.00;;;13.50;71.00;;;;;;5133320;27;20050;-74
2023/11/23 00:48:41;;;;;;;1.50;0.80;;;13.50;70.90;;;;;;5114457;27;20464;-74
2023/11/23 00:51:07;;;;;;;2.78;0.85;;;13.50;70.90;;;;;;5133221;27;20392;-74
2023/11/23 00:53:33;;;;;;;2.38;0.80;;;13.50;70.70;;;;;;5133275;27;20039;-73
2023/11/23 00:55:59;;;;;;;2.65;0.90;;;13.50;70.70;;;;;;5133346;27;20023;-73
2023/11/23 00:58:25;;;;;;;2.67;0.95;;;13.60;70.90;;;;;;5133211;27;20046;-74
2023/11/23 01:00:51;;;;;;;0.93;0.70;;;13.60;70.60;;;;;;5132978;27;20069;-75
2023/11/23 01:03:16;;;;;;;1.73;0.95;;;13.60;70.50;;;;;;5132834;27;20027;-73
2023/11/23 01:05:43;;;;;;;1.38;0.70;;;13.60;70.60;;;;;;5133319;27;20115;-74
2023/11/23 01:08:09;;;;;;;1.90;0.90;;;13.60;70.30;;;;;;5133160;27;20507;-75
2023/11/23 01:10:35;;;;;;;3.55;1.08;;;13.60;70.40;;;;;;5133486;27;20019;-74
2023/11/23 01:13:00;;;;;;;1.48;0.70;;;13.60;70.50;;;;;;5132943;28;20035;-75
2023/11/23 01:15:26;;;;;;;1.63;0.70;;;13.60;70.30;;;;;;5132941;28;20019;-74
2023/11/23 01:17:52;;;;;;;4.88;1.05;;;13.60;70.40;;;;;;5132690;28;20106;-74
2023/11/23 01:20:19;;;;;;;2.00;0.77;;;13.60;70.40;;;;;;5132874;28;20035;-74
2023/11/23 01:22:45;;;;;;;1.80;1.00;;;13.60;70.40;;;;;;5132917;28;20055;-74
2023/11/23 01:25:11;;;;;;;2.72;1.10;;;13.60;70.30;;;;;;5114592;28;20023;-73
2023/11/23 01:27:37;;;;;;;2.40;1.20;;;13.60;70.30;;;;;;5132946;28;20073;-74
2023/11/23 01:30:04;;;;;;;2.65;0.95;;;13.60;70.30;;;;;;5132867;28;20476;-74
2023/11/23 01:32:31;;;;;;;2.72;1.00;;;13.60;70.40;;;;;;5133084;28;20031;-74
2023/11/23 01:34:57;;;;;;;2.05;1.10;;;13.60;71.10;;;;;;5133125;28;20027;-74
2023/11/23 01:37:22;;;;;;;4.40;1.08;;;13.60;70.50;;;;;;5133032;28;20042;-74
2023/11/23 01:39:48;;;;;;;4.25;1.50;;;13.60;70.70;;;;;;5134877;28;20043;-74
2023/11/23 01:42:14;;;;;;;5.13;1.42;;;13.60;70.60;;;;;;5139253;28;20616;-73
2023/11/23 01:44:40;;;;;;;4.30;1.58;;;13.60;70.60;;;;;;5149671;28;20008;-72
2023/11/23 01:47:10;;;;;;;4.80;1.10;;;13.60;70.80;;;;;;5134662;28;20120;-75
2023/11/23 01:49:38;;;;;;;3.03;1.10;;;13.60;70.70;;;;;;5138322;28;20128;-73
2023/11/23 01:52:04;;;;;;;2.33;1.10;;;13.60;70.80;;;;;;5133258;28;20031;-74
2023/11/23 01:54:30;;;;;;;3.47;1.35;;;13.50;70.70;;;;;;5132671;28;20048;-72
2023/11/23 01:56:56;;;;;;;2.63;1.00;;;13.50;70.60;;;;;;5132423;28;20503;-73
2023/11/23 01:59:22;;;;;;;2.85;1.20;;;13.50;70.70;;;;;;5132442;28;20021;-73
2023/11/23 02:01:48;;;;;;;4.00;0.95;;;13.50;70.80;;;;;;5114280;28;20130;-75
2023/11/23 02:04:14;;;;;;;4.18;1.33;;;13.50;70.80;;;;;;5132469;28;20019;-73
2023/11/23 02:06:40;;;;;;;1.98;0.90;;;13.60;70.50;;;;;;5132394;28;20646;-75
2023/11/23 02:09:05;;;;;;;3.90;0.88;;;13.60;70.60;;;;;;5132240;28;20027;-75
2023/11/23 02:11:31;;;;;;;1.88;1.00;;;13.60;70.50;;;;;;5132033;28;20193;-72
2023/11/23 02:13:58;;;;;;;2.45;1.00;;;13.60;70.30;;;;;;5132092;28;20062;-74
2023/11/23 02:16:24;;;;;;;1.30;0.90;;;13.60;70.20;;;;;;5132144;28;20115;-75
2023/11/23 02:18:50;;;;;;;2.60;1.00;;;13.70;70.20;;;;;;5133798;27;20054;-73
2023/11/23 02:21:15;;;;;;;1.73;0.82;;;13.70;70.20;;;;;;5136116;27;20318;-74
2023/11/23 02:23:41;;;;;;;3.67;1.00;;;13.70;70.10;;;;;;5117294;27;20096;-74
2023/11/23 02:26:07;;;;;;;1.75;0.88;;;13.70;69.70;;;;;;5136279;27;20035;-75
2023/11/23 02:28:35;;;;;;;4.25;1.10;;;13.80;69.80;;;;;;5136087;27;20480;-74
2023/11/23 02:31:02;;;;;;;1.85;1.00;;;13.80;69.40;;;;;;5136078;27;20054;-74
2023/11/23 02:33:28;;;;;;;3.60;0.98;;;13.90;69.30;;;;;;5135999;27;20030;-74
2023/11/23 02:35:54;;;;;;;2.30;0.80;;;13.90;69.40;;;;;;5135740;27;20019;-73
2023/11/23 02:38:20;;;;;;;1.35;0.80;;;13.90;69.20;;;;;;5135861;27;20026;-74
2023/11/23 02:40:45;;;;;;;1.33;0.70;;;13.90;69.20;;;;;;5135320;27;20034;-73
2023/11/23 02:43:11;;;;;;;1.02;0.85;;;14.00;69.10;;;;;;5135656;27;20115;-73
2023/11/23 02:45:37;;;;;;;2.05;0.90;;;14.00;69.00;;;;;;5135533;27;20200;-73
2023/11/23 02:48:06;;;;;;;1.30;0.80;;;14.00;69.00;;;;;;5135485;27;20132;-74
2023/11/23 02:50:33;;;;;;;2.65;0.90;;;14.00;69.10;;;;;;5135733;27;20061;-74
2023/11/23 02:53:01;;;;;;;1.75;1.08;;;14.00;69.00;;;;;;5135304;27;20069;-74
2023/11/23 02:55:27;;;;;;;2.10;0.63;;;14.00;69.00;;;;;;5134883;27;20091;-75
2023/11/23 02:57:52;;;;;;;4.50;0.93;;;14.00;68.80;;;;;;5135119;27;20453;-75
2023/11/23 03:00:18;;;;;;;1.10;0.70;;;14.00;69.40;;;;;;5135161;27;20367;-74
2023/11/23 03:02:44;;;;;;;1.67;0.90;;;14.00;68.70;;;;;;5135299;27;20106;-74
2023/11/23 03:05:12;;;;;;;1.38;0.80;;;14.10;68.30;;;;;;5116965;27;20528;-73
2023/11/23 03:07:38;;;;;;;2.50;1.02;;;14.10;68.40;;;;;;5135613;27;20027;-74
2023/11/23 03:10:04;;;;;;;1.48;0.90;;;14.10;68.20;;;;;;5135038;27;20081;-74
2023/11/23 03:12:30;;;;;;;3.00;0.82;;;14.10;68.20;;;;;;5135100;27;20065;-74
2023/11/23 03:14:56;;;;;;;1.17;0.82;;;14.10;68.00;;;;;;5135062;27;20438;-73
2023/11/23 03:17:21;;;;;;;2.10;0.90;;;14.10;67.90;;;;;;5135036;27;20034;-75
2023/11/23 03:19:47;;;;;;;1.58;1.00;;;14.20;67.70;;;;;;5135051;27;20031;-75
2023/11/23 03:22:13;;;;;;;2.40;1.00;;;14.20;67.70;;;;;;5134733;27;20392;-74
2023/11/23 03:24:39;;;;;;;1.40;0.90;;;14.20;67.80;;;;;;5134888;27;20024;-74
2023/11/23 03:27:04;;;;;;;2.90;0.90;;;14.20;67.70;;;;;;5134960;27;20031;-74
2023/11/23 03:29:30;;;;;;;3.22;0.90;;;14.20;67.70;;;;;;5134601;27;20016;-74
2023/11/23 03:31:56;;;;;;;2.72;1.00;;;14.20;67.80;;;;;;5134795;27;20387;-74
2023/11/23 03:34:22;;;;;;;2.25;0.90;;;14.20;67.70;;;;;;5134751;27;20027;-75
2023/11/23 03:36:47;;;;;;;1.88;1.00;;;14.20;67.80;;;;;;5134518;27;20107;-74
2023/11/23 03:39:13;;;;;;;1.30;0.80;;;14.10;67.60;;;;;;5134346;27;20033;-75
2023/11/23 03:41:39;;;;;;;1.40;0.90;;;14.10;67.70;;;;;;5134367;27;20538;-74
2023/11/23 03:44:05;;;;;;;2.78;0.90;;;14.10;67.90;;;;;;5134024;27;20030;-74
2023/11/23 03:46:30;;;;;;;3.05;1.35;;;14.10;68.00;;;;;;5134358;27;20027;-75
2023/11/23 03:48:56;;;;;;;4.93;1.02;;;14.10;67.90;;;;;;5134222;27;20027;-74
2023/11/23 03:51:24;;;;;;;1.95;1.20;;;14.10;68.10;;;;;;5133988;27;20023;-74
2023/11/23 03:53:50;;;;;;;1.75;1.00;;;14.00;68.00;;;;;;5134218;27;20019;-75
2023/11/23 03:56:15;;;;;;;3.53;1.20;;;14.00;68.10;;;;;;5133924;27;20126;-74
2023/11/23 03:58:42;;;;;;;4.22;1.20;;;14.00;68.30;;;;;;5133764;27;20031;-74
2023/11/23 04:01:09;;;;;;;3.33;1.15;;;14.00;68.20;;;;;;5134051;27;20100;-75
2023/11/23 04:03:35;;;;;;;1.63;1.08;;;14.00;68.80;;;;;;5133967;27;20019;-74
2023/11/23 04:06:03;;;;;;;2.45;1.23;;;14.00;68.30;;;;;;5134025;27;20019;-75
2023/11/23 04:08:29;;;;;;;2.97;0.98;;;14.00;68.30;;;;;;5134186;27;20042;-73
2023/11/23 04:10:55;;;;;;;2.45;1.10;;;14.00;68.30;;;;;;5134136;27;20020;-76
2023/11/23 04:13:21;;;;;;;2.33;1.10;;;14.00;68.40;;;;;;5115484;27;20415;-74
2023/11/23 04:15:47;;;;;;;4.55;1.38;;;13.90;68.40;;;;;;5133832;27;20023;-74
2023/11/23 04:18:13;;;;;;;3.20;1.30;;;13.90;68.50;;;;;;5137530;27;20034;-74
2023/11/23 04:20:38;;;;;;;3.42;1.20;;;13.90;68.60;;;;;;5139181;27;20076;-74
2023/11/23 04:23:04;;;;;;;3.50;1.33;;;13.90;68.80;;;;;;5146618;27;20523;-74
2023/11/23 04:25:30;;;;;;;3.75;1.40;;;13.80;68.70;;;;;;5143792;27;20043;-74
2023/11/23 04:27:57;;;;;;;3.88;1.50;;;13.80;68.90;;;;;;5157889;27;20075;-74
2023/11/23 04:30:23;;;;;;;3.58;1.50;;;13.80;69.00;;;;;;5155555;27;20023;-74
2023/11/23 04:32:49;;;;;;;3.33;1.40;;;13.70;68.90;;;;;;5134585;27;20034;-75
2023/11/23 04:35:15;;;;;;;2.15;1.30;;;13.70;68.90;;;;;;5133772;27;20038;-73
2023/11/23 04:37:40;;;;;;;4.18;1.67;;;13.70;68.90;;;;;;5115034;27;20497;-74
2023/11/23 04:40:07;;;;;;;4.00;1.73;;;13.70;69.00;;;;;;5133454;27;20052;-74
2023/11/23 04:42:34;;;;;;;5.03;1.50;;;13.70;69.20;;;;;;5133301;27;20384;-75
2023/11/23 04:45:00;;;;;;;5.60;1.73;;;13.70;69.30;;;;;;5133356;27;20384;-74
2023/11/23 04:47:26;;;;;;;2.42;1.50;;;13.70;69.30;;;;;;5133278;27;20031;-75
2023/11/23 04:49:52;;;;;;;3.50;1.70;;;13.60;69.30;;;;;;5133425;27;20076;-73
2023/11/23 04:52:18;;;;;;;4.53;1.50;;;13.60;69.30;;;;;;5132927;27;20103;-74
2023/11/23 04:54:44;;;;;;;5.03;1.70;;;13.60;69.40;;;;;;5132969;27;20062;-75
2023/11/23 04:57:10;;;;;;;5.13;1.55;;;13.60;69.60;;;;;;5132934;27;20443;-74
2023/11/23 04:59:35;;;;;;;3.03;1.48;;;13.60;69.50;;;;;;5132657;27;20027;-75
2023/11/23 05:02:01;;;;;;;9.65;5.00;;;13.60;69.70;;;;;;5132842;27;20399;-75
2023/11/23 05:04:27;;;;;;;5.95;1.80;;;13.50;69.50;;;;;;5132430;27;20022;-75
2023/11/23 05:06:55;;;;;;;5.00;1.85;;;13.50;69.70;;;;;;5132496;27;20469;-76
2023/11/23 05:09:21;;;;;;;4.93;1.67;;;13.60;69.50;;;;;;5132590;27;20480;-74
2023/11/23 05:11:48;;;;;;;4.65;1.80;;;13.60;69.60;;;;;;5132590;27;20038;-74
2023/11/23 05:14:14;;;;;;;2.30;1.33;;;13.60;69.50;;;;;;5132529;28;20099;-74
2023/11/23 05:16:39;;;;;;;2.90;1.50;;;13.60;69.40;;;;;;5132563;28;20061;-76
2023/11/23 05:19:05;;;;;;;3.15;1.70;;;13.60;69.20;;;;;;5114191;28;20027;-74
2023/11/23 05:21:31;;;;;;;4.30;1.50;;;13.70;69.20;;;;;;5132423;28;20380;-74
2023/11/23 05:23:56;;;;;;;4.57;1.90;;;13.70;69.20;;;;;;5133125;28;20027;-75
2023/11/23 05:26:22;;;;;;;4.03;1.55;;;13.70;69.10;;;;;;5132899;28;20113;-74
2023/11/23 05:28:48;;;;;;;4.20;1.50;;;13.70;69.10;;;;;;5132693;28;20037;-76
2023/11/23 05:31:14;;;;;;;3.58;1.52;;;13.70;69.10;;;;;;5132665;28;20051;-78
2023/11/23 05:33:40;;;;;;;3.38;1.63;;;13.70;69.00;;;;;;5132519;28;20131;-73
2023/11/23 05:36:08;;;;;;;3.17;1.70;;;13.70;69.00;;;;;;5132883;28;20426;-74
2023/11/23 05:38:34;;;;;;;2.42;1.60;;;13.70;69.00;;;;;;5132328;28;20027;-74
2023/11/23 05:41:00;;;;;;;4.32;1.80;;;13.70;68.80;;;;;;5132135;28;20042;-75
2023/11/23 05:43:26;;;;;;;4.65;1.70;;;13.70;68.90;;;;;;5132392;28;20051;-73
2023/11/23 05:45:51;;;;;;;4.10;1.67;;;13.70;68.90;;;;;;5132425;28;20461;-75
2023/11/23 05:48:17;;;;;;;3.80;1.77;;;13.70;68.90;;;;;;5132382;28;20032;-77
2023/11/23 05:50:43;;;;;;;3.88;1.80;;;13.70;69.00;;;;;;5131682;28;20024;-76
2023/11/23 05:53:08;;;;;;;7.38;2.00;;;13.70;68.90;;;;;;5132448;27;20053;-75
2023/11/23 05:55:34;;;;;;;5.78;2.15;;;13.70;68.80;;;;;;5135931;27;20434;-76
2023/11/23 05:58:00;;;;;;;3.67;1.50;;;13.70;68.80;;;;;;5136070;27;20019;-76
2023/11/23 06:00:27;;;;;;;4.43;1.50;;;13.70;68.90;;;;;;5135798;27;20031;-75
2023/11/23 06:02:52;;;;;;;3.63;1.65;;;13.80;69.00;;;;;;5135951;27;20035;-75
2023/11/23 06:05:18;;;;;;;4.72;2.28;;;13.80;69.00;;;;;;5136180;27;20022;-77
2023/11/23 06:07:44;;;;;;;3.85;1.83;;;13.80;69.00;;;;;;5135934;27;20080;-76
2023/11/23 06:10:11;;;;;;;2.45;1.60;;;13.80;69.00;;;;;;5135896;27;20365;-76
2023/11/23 06:12:40;;;;;;;4.00;1.83;;;13.80;68.90;;;;;;5136130;27;20453;-76
2023/11/23 06:15:07;;;;;;;7.28;2.17;;;13.80;68.80;;;;;;5136248;27;20050;-76
2023/11/23 06:17:34;;;;;;;3.40;1.58;;;13.80;68.90;;;;;;5135891;27;20023;-77
2023/11/23 06:20:00;;;;;;;4.90;1.75;;;13.80;68.70;;;;;;5135837;27;20023;-78
2023/11/23 06:22:26;;;;;;;6.97;2.00;;;13.90;68.80;;;;;;5136972;27;20036;-77
2023/11/23 06:24:52;;;;;;;5.28;2.00;;;13.90;69.00;;;;;;5136427;27;20429;-76
2023/11/23 06:27:18;;;;;;;4.68;1.85;;;13.90;69.00;;;;;;5135741;27;20068;-78
2023/11/23 06:29:44;;;;;;;4.70;1.95;;;13.90;68.80;;;;;;5117566;27;20016;-77
2023/11/23 06:32:12;;;;;;;7.53;2.13;;;14.00;68.90;;;;;;5136150;27;20034;-77
2023/11/23 06:34:38;;;;;;;5.50;1.52;;;14.00;68.90;;;;;;5117228;27;20022;-77
2023/11/23 06:37:04;;;;;;;5.43;1.98;;;14.30;68.50;;;;;;5135701;27;20110;-78
2023/11/23 06:39:29;;;;;;;5.22;2.28;;;14.60;68.10;;;;;;5135701;27;20380;-76
2023/11/23 06:41:55;;;;;;;3.78;1.30;;;15.20;67.20;;;;;;5135371;27;20049;-77
2023/11/23 06:44:22;;;;;;;3.95;1.80;;;15.70;66.00;;;;;;5117251;27;20070;-77
2023/11/23 06:46:47;;;;;;;6.53;1.67;;;16.20;65.30;;;;;;5135419;27;20114;-78
2023/11/23 06:49:13;;;;;;;5.85;1.70;;;16.10;64.60;;;;;;5135656;27;20095;-77
2023/11/23 06:51:42;;;;;;;9.02;1.92;;;15.80;65.00;;;;;;5135000;27;20032;-78
2023/11/23 06:54:09;;;;;;;3.35;1.70;;;15.50;65.50;;;;;;5135164;27;20023;-77
2023/11/23 06:56:35;;;;;;;7.53;2.20;;;15.50;65.50;;;;;;5135028;27;20031;-78
2023/11/23 06:59:01;;;;;;;4.00;1.50;;;16.40;64.80;;;;;;5128076;27;20388;-76
2023/11/23 07:01:27;;;;;;;5.38;1.88;;;17.20;63.10;;;;;;5134375;27;20034;-77
2023/11/23 07:03:53;;;;;;;7.35;1.38;;;17.70;61.80;;;;;;5130080;27;20023;-79
2023/11/23 07:06:23;;;;;;;11.40;1.80;;;18.20;60.80;;;;;;5134901;27;20031;-79
2023/11/23 07:08:49;;;;;;;4.80;1.50;;;18.50;60.20;;;;;;5135075;27;20019;-76
2023/11/23 07:11:19;;;;;;;4.93;1.63;;;18.80;60.10;;;;;;5135206;27;20035;-73
2023/11/23 07:13:45;;;;;;;4.22;1.60;;;19.00;58.90;;;;;;5127306;27;20026;-74
2023/11/23 07:16:12;;;;;;;2.65;1.50;;;19.30;58.60;;;;;;5119644;27;20028;-74
2023/11/23 07:18:39;;;;;;;3.50;1.63;;;19.50;57.90;;;;;;5114387;28;20031;-74
2023/11/23 07:21:05;;;;;;;5.03;1.38;;;19.80;56.90;;;;;;5129961;27;20039;-78
2023/11/23 07:23:31;;;;;;;4.28;1.45;;;19.20;56.70;;;;;;5134479;27;20404;-77
2023/11/23 07:25:57;;;;;;;7.25;1.52;;;18.20;58.50;;;;;;5134465;27;20106;-80
2023/11/23 07:28:26;;;;;;;3.70;1.60;;;17.50;59.90;;;;;;5134762;27;20377;-81
2023/11/23 07:30:53;;;;;;;5.05;1.80;;;17.10;60.70;;;;;;5134636;27;20110;-79
2023/11/23 07:33:19;;;;;;;2.72;1.60;;;16.80;61.20;;;;;;5134565;27;20015;-79
2023/11/23 07:35:50;;;;;;;4.70;1.40;;;16.60;61.60;;;;;;5134659;27;20035;-79
2023/11/23 07:38:15;;;;;;;2.67;1.42;;;16.40;61.90;;;;;;5134710;27;20035;-78
2023/11/23 07:40:41;;;;;;;7.03;1.45;;;16.30;61.90;;;;;;5134229;27;20496;-80
2023/11/23 07:43:10;;;;;;;5.90;1.40;;;16.20;62.30;;;;;;5128066;27;20421;-79
2023/11/23 07:45:37;;;;;;;6.45;1.40;;;16.20;62.40;;;;;;5131741;27;20012;-78
2023/11/23 07:48:08;;;;;;;3.88;1.50;;;16.20;62.50;;;;;;5134037;27;20102;-75
2023/11/23 07:50:36;;;;;;;5.13;1.45;;;16.20;62.60;;;;;;5134889;27;20435;-75
2023/11/23 07:53:02;;;;;;;5.70;1.63;;;16.20;62.50;;;;;;5115722;27;20023;-76
2023/11/23 07:55:27;;;;;;;4.50;1.80;;;16.20;62.60;;;;;;5133877;27;20425;-76
2023/11/23 07:57:53;;;;;;;4.65;1.30;;;16.20;62.70;;;;;;5134257;27;20023;-74
2023/11/23 08:00:19;;;;;;;3.90;1.58;;;16.20;62.70;;;;;;5134763;27;20016;-76
2023/11/23 08:02:46;;;;;;;5.07;1.50;;;16.20;62.50;;;;;;5137492;27;20035;-82
2023/11/23 08:05:12;;;;;;;6.03;1.92;;;16.30;62.70;;;;;;5135385;27;20098;-76
2023/11/23 08:07:38;;;;;;;2.75;1.30;;;16.30;62.80;;;;;;5134488;27;20035;-85
2023/11/23 08:10:08;;;;;;;4.75;1.67;;;16.30;62.50;;;;;;5134350;27;20536;-87
2023/11/23 08:12:34;;;;;;;3.90;1.50;;;16.40;62.50;;;;;;5109208;27;20387;-83
2023/11/23 08:15:00;;;;;;;6.53;2.33;;;16.40;62.40;;;;;;5134603;27;20103;-84
2023/11/23 08:17:26;;;;;;;4.53;1.70;;;16.50;62.40;;;;;;5125538;27;20019;-80
2023/11/23 08:19:52;;;;;;;5.00;1.65;;;16.60;62.30;;;;;;5117684;27;20027;-82
2023/11/23 08:22:20;;;;;;;3.78;1.65;;;16.60;62.30;;;;;;5114208;28;20127;-79
2023/11/23 08:24:46;;;;;;;4.32;1.30;;;16.70;61.90;;;;;;5113935;28;20016;-82
2023/11/23 08:27:12;;;;;;;3.85;1.45;;;16.70;62.00;;;;;;5133100;27;20031;-82
2023/11/23 08:29:38;;;;;;;3.88;1.40;;;16.80;62.10;;;;;;5141375;27;20091;-82
2023/11/23 08:32:04;;;;;;;4.80;1.50;;;16.80;62.20;;;;;;5115226;27;20023;-81
2023/11/23 08:34:30;;;;;;;6.45;1.50;;;16.90;62.00;;;;;;5134349;27;20084;-83
2023/11/23 08:36:57;;;;;;;5.18;1.65;;;17.00;61.80;;;;;;5135212;27;20418;-81
2023/11/23 08:39:23;;;;;;;3.83;1.50;;;17.00;61.90;;;;;;5133709;27;20048;-82
2023/11/23 08:41:49;;;;;;;6.75;1.80;;;17.00;61.90;;;;;;5131618;27;20035;-79
2023/11/23 08:44:14;;;;;;;5.10;1.73;;;17.10;62.00;;;;;;5128716;27;20469;-82
2023/11/23 08:46:41;;;;;;;2.63;1.50;;;17.20;62.00;;;;;;5128907;27;20027;-82
2023/11/23 08:49:08;;;;;;;5.28;2.17;;;17.30;62.00;;;;;;5121933;27;20330;-83
2023/11/23 08:51:34;;;;;;;4.85;2.30;;;17.40;62.10;;;;;;5112876;28;20035;-82
2023/11/23 08:54:00;;;;;;;3.45;1.73;;;17.40;62.50;;;;;;5112673;28;20023;-82
2023/11/23 08:56:25;;;;;;;5.63;1.70;;;17.50;62.40;;;;;;5112998;28;20072;-81
2023/11/23 08:58:51;;;;;;;7.07;1.90;;;17.60;61.80;;;;;;5112821;28;20023;-82
2023/11/23 09:01:17;;;;;;;6.55;2.25;;;17.60;61.50;;;;;;5126754;27;20117;-83
2023/11/23 09:03:43;;;;;;;3.78;1.50;;;17.70;61.50;;;;;;5133063;27;20030;-83
2023/11/23 09:06:08;;;;;;;4.13;1.63;;;17.70;61.10;;;;;;5133167;27;20023;-81
2023/11/23 09:08:35;;;;;;;4.70;1.63;;;17.80;61.00;;;;;;5132925;27;20453;-82
2023/11/23 09:11:01;;;;;;;211.45;19.58;;;17.90;60.90;;;;;;5133095;27;20072;-75
2023/11/23 09:13:27;;;;;;;6.60;2.10;;;17.90;60.70;;;;;;5132234;27;20034;-74
2023/11/23 09:15:54;;;;;;;23.77;3.63;;;18.00;60.40;;;;;;5132930;28;20019;-75
2023/11/23 09:18:21;;;;;;;14.32;2.40;;;18.10;60.50;;;;;;5125314;28;20466;-82
2023/11/23 09:20:47;;;;;;;9.50;1.83;;;18.20;60.30;;;;;;5110707;28;20538;-81
2023/11/23 09:23:16;;;;;;;4.63;1.63;;;18.20;60.00;;;;;;5111302;28;20044;-78
2023/11/23 09:25:43;;;;;;;4.88;1.52;;;18.40;60.20;;;;;;5112707;28;20078;-80
2023/11/23 09:28:09;;;;;;;5.20;1.70;;;18.30;59.90;;;;;;5114933;28;20019;-84
2023/11/23 09:30:35;;;;;;;5.00;1.80;;;18.30;60.00;;;;;;5116922;28;20081;-82
2023/11/23 09:33:00;;;;;;;4.28;1.90;;;18.30;59.80;;;;;;5117372;28;20023;-81
2023/11/23 09:35:26;;;;;;;6.15;1.77;;;18.30;59.80;;;;;;5116975;28;20028;-80
2023/11/23 09:37:57;;;;;;;6.15;1.77;;;18.20;60.00;;;;;;5126760;28;20485;-81
2023/11/23 09:40:24;;;;;;;6.55;1.83;;;18.20;60.20;;;;;;5119514;28;20027;-83
2023/11/23 09:42:50;;;;;;;8.55;1.77;;;18.10;60.50;;;;;;5098275;28;20067;-82
2023/11/23 09:45:19;;;;;;;4.00;1.55;;;18.10;60.70;;;;;;5116570;28;20028;-82
2023/11/23 09:47:49;;;;;;;9.82;1.70;;;18.10;60.60;;;;;;5116618;28;20022;-82
2023/11/23 09:50:16;;;;;;;5.78;1.95;;;18.10;60.70;;;;;;5116481;28;20039;-81
2023/11/23 09:52:42;;;;;;;5.18;1.90;;;18.00;60.80;;;;;;5116629;28;20024;-81
2023/11/23 09:55:10;;;;;;;7.30;2.15;;;18.10;60.90;;;;;;5116407;28;20511;-79
2023/11/23 09:57:36;;;;;;;6.30;2.15;;;18.10;60.80;;;;;;5116467;28;20481;-81
2023/11/23 10:00:09;;;;;;;6.72;2.08;;;18.10;60.80;;;;;;5116174;28;20011;-80
2023/11/23 10:02:36;;;;;;;4.55;1.70;;;18.10;60.70;;;;;;5134998;27;20043;-84
2023/11/23 10:05:05;;;;;;;4.28;1.90;;;18.10;60.90;;;;;;5136665;27;20472;-82
2023/11/23 10:07:35;;;;;;;4.85;1.90;;;18.10;61.20;;;;;;5136634;27;20120;-81
2023/11/23 10:10:05;;;;;;;9.45;2.38;;;18.00;60.90;;;;;;5136355;27;20068;-81
2023/11/23 10:12:32;;;;;;;9.15;2.33;;;18.10;61.30;;;;;;5137130;27;20102;-79
2023/11/23 10:14:58;;;;;;;7.93;2.58;;;18.10;61.50;;;;;;5136570;27;20392;-78
2023/11/23 10:17:24;;;;;;;6.97;2.28;;;18.10;61.50;;;;;;5136494;27;20015;-79
2023/11/23 10:19:49;;;;;;;5.53;2.30;;;18.10;61.60;;;;;;5135813;27;20384;-76
2023/11/23 10:22:15;;;;;;;6.40;2.20;;;18.20;61.60;;;;;;5136156;27;20051;-80
2023/11/23 10:24:50;;;;;;;11.00;2.33;;;18.20;61.50;;;;;;5136400;27;20115;-78
2023/11/23 10:27:19;;;;;;;7.82;2.47;;;18.20;61.50;;;;;;5115377;28;20042;-76
2023/11/23 10:29:46;;;;;;;7.55;2.30;;;18.10;61.60;;;;;;5115617;28;20023;-75
2023/11/23 10:32:15;;;;;;;8.98;2.55;;;18.10;61.50;;;;;;5115814;28;20112;-78
2023/11/23 10:34:41;;;;;;;5.97;2.05;;;18.10;61.70;;;;;;5127745;27;20145;-75
2023/11/23 10:37:13;;;;;;;9.05;2.63;;;18.10;61.70;;;;;;5136553;27;20027;-73
2023/11/23 10:39:39;;;;;;;11.18;2.60;;;18.10;61.80;;;;;;5135651;27;20023;-83
2023/11/23 10:42:05;;;;;;;8.00;2.17;;;18.10;61.80;;;;;;5118143;27;20031;-84
2023/11/23 10:44:33;;;;;;;8.73;2.45;;;18.10;61.70;;;;;;5136716;27;20027;-87
2023/11/23 10:47:03;;;;;;;6.38;2.47;;;18.10;61.70;;;;;;5136960;27;20019;-81
2023/11/23 10:49:36;;;;;;;5.47;2.60;;;18.20;61.90;;;;;;5136793;27;20030;-86
2023/11/23 10:52:03;;;;;;;18.42;2.90;;;18.20;61.90;;;;;;5135273;27;20035;-75
2023/11/23 10:54:29;;;;;;;11.63;2.40;;;18.20;61.80;;;;;;5135189;27;20092;-74
2023/11/23 10:56:59;;;;;;;6.55;2.38;;;18.20;61.80;;;;;;5135119;27;20059;-74
2023/11/23 10:59:26;;;;;;;7.47;2.72;;;18.20;61.90;;;;;;5135028;27;20019;-75
2023/11/23 11:01:55;;;;;;;5.15;2.20;;;18.30;62.00;;;;;;5135303;27;20043;-76
2023/11/23 11:04:22;;;;;;;15.63;3.50;;;18.40;62.10;;;;;;5135075;27;20034;-75
2023/11/23 11:06:55;;;;;;;13.65;2.85;;;18.40;62.20;;;;;;5135237;27;20404;-75
2023/11/23 11:09:25;;;;;;;4.55;2.50;;;18.40;62.20;;;;;;5135140;27;20023;-74
2023/11/23 11:11:55;;;;;;;13.30;2.90;;;18.50;62.30;;;;;;5135197;27;20027;-75
2023/11/23 11:14:34;;;;;;;7.13;2.60;;;18.50;62.50;;;;;;5135377;27;20418;-77
2023/11/23 11:17:04;;;;;;;5.28;2.33;;;18.50;62.30;;;;;;5136020;27;20027;-75
2023/11/23 11:19:43;;;;;;;5.90;2.33;;;18.60;62.30;;;;;;5138262;27;20106;-89
2023/11/23 11:22:13;;;;;;;10.52;2.72;;;18.70;62.30;;;;;;5135706;27;20413;-88
2023/11/23 11:24:39;;;;;;;7.05;2.45;;;18.80;62.10;;;;;;5140053;27;20019;-88
2023/11/23 11:27:10;;;;;;;5.40;2.22;;;18.90;61.80;;;;;;5139182;27;20027;-90
2023/11/23 11:29:36;;;;;;;7.30;2.47;;;19.10;61.70;;;;;;5136676;27;20457;-88
2023/11/23 11:32:08;;;;;;;7.38;2.42;;;19.30;60.60;;;;;;5136815;27;20027;-89
2023/11/23 11:34:36;;;;;;;5.20;2.20;;;19.60;60.40;;;;;;5117650;27;20418;-87
2023/11/23 11:37:03;;;;;;;6.00;2.40;;;19.70;59.90;;;;;;5143941;27;20098;-89
2023/11/23 11:39:32;;;;;;;6.50;2.80;;;19.90;59.80;;;;;;5138695;27;20185;-88
2023/11/23 11:41:59;;;;;;;7.75;2.45;;;20.10;59.30;;;;;;5137585;27;20028;-88
2023/11/23 11:44:29;;;;;;;8.27;2.58;;;20.30;59.20;;;;;;5137584;27;20380;-88
2023/11/23 13:12:56;;;;;;;4.43;1.95;;;20.80;58.20;;;;;;5061662;22;20434;-83
2023/11/23 13:15:23;;;;;;;8.73;2.30;;;20.90;57.70;;;;;;5035121;28;20116;-83
2023/11/23 13:17:50;;;;;;;7.05;2.42;;;20.90;57.50;;;;;;5053314;28;20029;-83
2023/11/23 13:20:17;;;;;;;9.15;3.40;;;21.00;57.30;;;;;;5055568;28;20030;-83
2023/11/23 13:22:43;;;;;;;7.43;2.40;;;21.00;57.60;;;;;;5057278;28;20049;-82
2023/11/23 13:25:11;;;;;;;5.05;2.30;;;20.90;57.40;;;;;;5053353;28;20049;-84
2023/11/23 13:27:40;;;;;;;6.78;2.05;;;20.80;57.50;;;;;;5053865;28;20155;-84
2023/11/23 13:30:07;;;;;;;7.32;2.17;;;20.80;57.60;;;;;;5053413;28;20145;-83
2023/11/23 13:32:33;;;;;;;5.40;2.75;;;20.60;57.80;;;;;;5053397;28;20124;-82
2023/11/23 13:34:58;;;;;;;5.15;2.10;;;20.50;58.00;;;;;;5053204;28;20065;-83
2023/11/23 13:37:24;;;;;;;5.10;2.15;;;20.40;58.10;;;;;;5052270;28;20033;-82
2023/11/23 13:39:50;;;;;;;7.53;2.65;;;20.30;58.30;;;;;;5052448;28;20029;-82
2023/11/23 13:42:17;;;;;;;7.32;2.38;;;20.20;58.50;;;;;;5052531;28;20124;-84
2023/11/23 13:44:43;;;;;;;5.97;2.30;;;20.10;58.60;;;;;;5052447;28;20048;-82
2023/11/23 13:47:12;;;;;;;7.75;2.20;;;20.20;58.70;;;;;;5052293;28;20076;-83
2023/11/23 13:49:38;;;;;;;4.18;1.73;;;20.30;58.50;;;;;;5052476;28;20029;-83
2023/11/23 13:52:05;;;;;;;5.53;1.92;;;20.40;58.20;;;;;;5034506;28;20060;-83
2023/11/23 13:54:30;;;;;;;5.28;2.10;;;20.60;58.20;;;;;;5052743;28;20030;-86
2023/11/23 13:56:57;;;;;;;6.72;2.05;;;20.70;57.80;;;;;;5051843;28;20045;-72
2023/11/23 13:59:23;;;;;;;4.68;1.80;;;20.80;57.30;;;;;;5051714;28;20029;-72
2023/11/23 14:01:49;;;;;;;6.00;2.10;;;20.90;57.60;;;;;;5051556;28;20391;-71
2023/11/23 14:04:15;;;;;;;3.40;1.88;;;21.00;57.60;;;;;;5051524;28;20529;-71
2023/11/23 14:06:42;;;;;;;4.90;1.75;;;21.00;57.40;;;;;;5051592;28;20060;-71